Wakefield, RI (02879)

11:47 PM EDT on September 02, 2015 (GMT -0400)
Snug Harbor, RI | | Change Station
CLOSE
Current Station
Personal Weather Station
Location: Wakefield, RI
Elevation: 10 ft
Nearby Weather Stations

Elev 10 ft 41.39 °N, 71.52 °W | Updated 3 seconds ago

Clear
Clear
71.5 °F
Feels Like 71.5 °F
N
3.0
Wind Variable Wind from SSE
Gusts 8.0 mph

Today
High -- | Low -- °F
--% Chance of Precip.
Yesterday
High -- | Low -- °F
Precip. -- in
6:13 AM 7:17 PM
Waning Gibbous, 74% visible
Pressure 29.89 in
Visibility 10.0 miles
Clouds Clear
Dew Point 70 °F
Humidity 95%
Rainfall 0.00 in
Snow Depth Not available.
UV 0 out of 12
Pollen 8.70 out of 12
Air Quality Not available.
Flu Activity Not available.
METAR KUUU 030253Z AUTO 21004KT 10SM CLR 23/19 A2990 RMK AO2 SLP122 T02280189 58001
Pressure 29.89 in
Visibility 10.0 miles
Clouds Clear
Dew Point 70 °F
Humidity 95%
Rainfall 0.00 in
Snow Depth Not available.
UV 0 out of 12
Pollen 8.70 out of 12
Air Quality Not available.
Flu Activity Not available.
METAR KUUU 030253Z AUTO 21004KT 10SM CLR 23/19 A2990 RMK AO2 SLP122 T02280189 58001

10-Day Weather Forecast

×

Almanac

Astronomy

Sep. 02, 2015 Rise Set
Actual Time
Civil Twilight
Nautical Twilight
Astronomical Twilight
Moon
Length of Visible Light
Length of Day
Tomorrow will be .
, % of the Moon is Illuminated

Today's Extremes

State Highs State Lows

Community

WunderPhotos

Upload Photos

1,851,903 photos uploaded!

WunderBlogs® & News

Nearby

Air Quality

  Air Quality AQ Index Pollutant
Not available.

Snow Depth

Station Depth Elevation

Earthquake Activity

City Distance Mag. Time & Date
Minimum magnitude displayed is 2.5.

Coastal Water Temperatures

Place Temperature

Stations

Nearby Weather Stations

Station Location Temp. Windchill Dew Point Humidity Wind Precip. Elev Updated Type